createdAt,value
2024-02-29T00:01:16.742Z,26.88
2024-02-29T00:03:43.857Z,31.83
2024-02-29T00:06:11.000Z,26.00
2024-02-29T00:08:38.149Z,28.35
2024-02-29T00:11:06.838Z,31.15
2024-02-29T00:13:34.016Z,31.45
2024-02-29T00:16:01.251Z,25.33
2024-02-29T00:18:28.326Z,32.53
2024-02-29T00:20:55.477Z,26.83
2024-02-29T00:23:22.541Z,28.60
2024-02-29T00:25:49.619Z,24.33
2024-02-29T00:28:16.726Z,28.30
2024-02-29T00:30:43.889Z,31.75
2024-02-29T00:33:11.027Z,26.70
2024-02-29T00:35:38.166Z,28.42
2024-02-29T00:38:05.372Z,27.38
2024-02-29T00:40:32.609Z,29.15
2024-02-29T00:42:59.915Z,31.25
2024-02-29T00:45:27.637Z,25.63
2024-02-29T00:47:56.122Z,29.08
2024-02-29T00:50:23.395Z,26.13
2024-02-29T00:52:50.551Z,27.23
2024-02-29T00:55:18.014Z,29.73
2024-02-29T00:57:52.732Z,24.38
2024-02-29T01:00:20.025Z,23.70
2024-02-29T01:02:47.082Z,31.95
2024-02-29T01:05:15.813Z,33.13
2024-02-29T01:07:42.912Z,26.92
2024-02-29T01:10:13.262Z,24.83
2024-02-29T01:12:42.818Z,31.63
2024-02-29T01:17:37.466Z,23.38
2024-02-29T01:20:08.621Z,29.20
2024-02-29T01:22:36.297Z,24.38
2024-02-29T01:25:04.031Z,28.73
2024-02-29T01:27:31.243Z,31.98
2024-02-29T01:29:58.382Z,24.17
2024-02-29T01:32:28.165Z,31.15
2024-02-29T01:34:57.137Z,27.35
2024-02-29T01:37:24.206Z,36.78
2024-02-29T01:39:51.304Z,28.90
2024-02-29T01:42:18.380Z,25.63
2024-02-29T01:44:51.710Z,30.95
2024-02-29T01:47:18.764Z,22.67
2024-02-29T01:49:47.405Z,31.98
2024-02-29T01:52:16.571Z,30.50
2024-02-29T01:54:47.536Z,24.38
2024-02-29T01:57:14.678Z,32.47
2024-02-29T01:59:43.150Z,26.02
2024-02-29T02:02:10.218Z,27.85
2024-02-29T02:04:37.285Z,29.70
2024-02-29T02:07:05.747Z,22.45
2024-02-29T02:09:33.055Z,30.63
2024-02-29T02:12:00.176Z,34.25
2024-02-29T02:14:27.314Z,28.10
2024-02-29T02:16:54.432Z,29.35
2024-02-29T02:19:21.511Z,24.77
2024-02-29T02:21:48.659Z,30.88
2024-02-29T02:24:15.752Z,32.13
2024-02-29T02:26:42.815Z,27.33
2024-02-29T02:29:09.884Z,28.92
2024-02-29T02:31:37.243Z,30.52
2024-02-29T02:34:05.233Z,27.27
2024-02-29T02:36:32.328Z,29.40
2024-02-29T02:38:59.459Z,27.63
2024-02-29T02:41:26.526Z,29.67
2024-02-29T02:43:53.776Z,26.42
2024-02-29T02:46:21.036Z,28.23
2024-02-29T02:48:48.132Z,27.08
2024-02-29T02:51:15.252Z,33.00
2024-02-29T02:53:42.366Z,30.13
2024-02-29T02:56:09.429Z,31.13
2024-02-29T02:58:36.893Z,27.75
2024-02-29T03:01:04.334Z,29.42
2024-02-29T03:03:31.401Z,31.15
2024-02-29T03:05:58.491Z,33.78
2024-02-29T03:08:25.553Z,27.25
2024-02-29T03:10:52.670Z,22.92
2024-02-29T03:13:19.872Z,29.90
2024-02-29T03:15:46.963Z,28.40
2024-02-29T03:18:14.076Z,29.52
2024-02-29T03:20:41.145Z,27.25
2024-02-29T03:23:08.257Z,30.65
2024-02-29T03:25:35.360Z,30.13
2024-02-29T03:28:03.753Z,28.77
2024-02-29T03:30:30.920Z,24.60
2024-02-29T03:32:58.153Z,30.73
2024-02-29T03:35:25.368Z,29.73
2024-02-29T03:37:52.462Z,33.50
2024-02-29T03:40:22.303Z,32.15
2024-02-29T03:42:49.552Z,29.67
2024-02-29T03:45:16.781Z,29.15
2024-02-29T03:47:43.920Z,29.25
2024-02-29T03:50:11.356Z,29.48
2024-02-29T03:52:39.722Z,31.90
2024-02-29T03:55:07.298Z,34.20
2024-02-29T03:57:34.418Z,28.60
2024-02-29T04:00:01.561Z,28.40
2024-02-29T04:02:29.092Z,33.03
2024-02-29T04:04:56.298Z,29.08
2024-02-29T04:07:23.448Z,26.85
2024-02-29T04:09:55.730Z,34.22
2024-02-29T04:12:22.997Z,30.50
2024-02-29T04:14:50.142Z,29.73
2024-02-29T04:17:17.232Z,30.25
2024-02-29T04:19:46.369Z,30.98
2024-02-29T04:22:15.037Z,26.25
2024-02-29T04:24:42.311Z,27.33
2024-02-29T04:27:09.440Z,27.55
2024-02-29T04:29:36.561Z,36.65
2024-02-29T04:32:03.624Z,30.35
2024-02-29T04:34:30.814Z,30.85
2024-02-29T04:36:58.130Z,36.78
2024-02-29T04:39:25.200Z,31.80
2024-02-29T04:41:52.371Z,26.60
2024-02-29T04:44:19.495Z,28.17
2024-02-29T04:46:46.623Z,26.35
2024-02-29T04:49:13.814Z,29.38
2024-02-29T04:51:40.978Z,29.80
2024-02-29T04:54:08.527Z,27.85
2024-02-29T04:56:36.624Z,32.28
2024-02-29T04:59:05.644Z,34.40
2024-02-29T05:01:33.495Z,32.25
2024-02-29T05:04:00.753Z,28.88
2024-02-29T05:06:29.003Z,26.25
2024-02-29T05:08:56.170Z,32.60
2024-02-29T05:11:23.274Z,30.55
2024-02-29T05:13:50.445Z,31.52
2024-02-29T05:16:18.402Z,25.90
2024-02-29T05:18:45.675Z,28.58
2024-02-29T05:21:12.796Z,28.00
2024-02-29T05:23:39.832Z,28.40
2024-02-29T05:26:06.985Z,34.47
2024-02-29T05:28:34.783Z,31.58
2024-02-29T05:31:01.855Z,34.33
2024-02-29T05:33:28.946Z,32.33
2024-02-29T05:35:56.006Z,31.98
2024-02-29T05:38:23.089Z,27.77
2024-02-29T05:40:50.363Z,35.90
2024-02-29T05:43:17.489Z,31.20
2024-02-29T05:45:44.901Z,30.02
2024-02-29T05:48:12.141Z,24.80
2024-02-29T05:50:39.313Z,33.10
2024-02-29T05:53:06.401Z,39.13
2024-02-29T05:55:33.660Z,34.28
2024-02-29T05:58:00.829Z,29.65
2024-02-29T06:00:27.939Z,34.97
2024-02-29T06:02:55.140Z,33.05
2024-02-29T06:05:22.256Z,29.88
2024-02-29T06:07:49.342Z,30.55
2024-02-29T06:10:16.684Z,32.05
2024-02-29T06:12:43.817Z,27.00
2024-02-29T06:15:12.082Z,26.35
2024-02-29T06:17:39.896Z,26.70
2024-02-29T06:20:11.656Z,36.47
2024-02-29T06:22:39.697Z,30.52
2024-02-29T06:25:07.142Z,32.08
2024-02-29T06:27:34.407Z,30.20
2024-02-29T06:30:03.158Z,34.75
2024-02-29T06:32:30.261Z,36.33
2024-02-29T06:34:57.348Z,25.20
2024-02-29T06:37:24.436Z,30.60
2024-02-29T06:39:51.538Z,37.17
2024-02-29T06:42:18.576Z,29.90
2024-02-29T06:44:45.635Z,31.77
2024-02-29T06:47:12.698Z,33.17
2024-02-29T06:49:39.740Z,33.60
2024-02-29T06:52:06.881Z,28.98
2024-02-29T06:54:34.075Z,33.72
2024-02-29T06:57:01.145Z,39.28
2024-02-29T06:59:28.222Z,30.58
2024-02-29T07:01:55.383Z,34.15
2024-02-29T07:04:22.557Z,34.22
2024-02-29T07:06:49.677Z,32.17
2024-02-29T07:09:16.729Z,36.03
2024-02-29T07:11:43.797Z,33.55
2024-02-29T07:14:10.891Z,31.92
2024-02-29T07:16:39.580Z,33.70
2024-02-29T07:19:06.868Z,27.27
2024-02-29T07:21:36.909Z,36.58
2024-02-29T07:24:04.744Z,33.05
2024-02-29T07:26:32.225Z,30.25
2024-02-29T07:28:59.818Z,28.02
2024-02-29T07:31:27.490Z,32.92
2024-02-29T07:33:55.487Z,38.80
2024-02-29T07:36:23.657Z,43.88
2024-02-29T07:38:50.707Z,30.13
2024-02-29T07:41:17.819Z,29.83
2024-02-29T07:43:45.028Z,32.67
2024-02-29T07:46:12.142Z,28.98
2024-02-29T07:48:39.285Z,33.28
2024-02-29T07:51:06.495Z,31.33
2024-02-29T07:53:33.704Z,30.00
2024-02-29T07:56:00.788Z,41.03
2024-02-29T07:58:28.047Z,33.58
2024-02-29T08:00:55.321Z,38.28
2024-02-29T08:03:22.488Z,37.22
2024-02-29T08:05:49.605Z,37.58
2024-02-29T08:08:16.667Z,36.40
2024-02-29T08:10:44.249Z,32.85
2024-02-29T08:13:11.370Z,32.42
2024-02-29T08:15:38.464Z,34.55
2024-02-29T08:18:05.668Z,37.92
2024-02-29T08:20:32.757Z,33.70
2024-02-29T08:22:59.816Z,33.50
2024-02-29T08:25:31.763Z,31.08
2024-02-29T08:27:59.014Z,37.10
2024-02-29T08:30:26.261Z,37.10
2024-02-29T08:32:53.420Z,30.30
2024-02-29T08:35:20.520Z,31.30
2024-02-29T08:37:47.728Z,30.63
2024-02-29T08:40:15.475Z,33.85
2024-02-29T08:42:42.829Z,32.95
2024-02-29T08:45:10.431Z,33.90
2024-02-29T08:47:37.618Z,34.00
2024-02-29T08:50:04.911Z,28.88
2024-02-29T08:52:32.986Z,28.55
2024-02-29T08:55:00.348Z,30.10
2024-02-29T08:57:27.462Z,32.00
2024-02-29T08:59:54.545Z,32.42
2024-02-29T09:02:21.721Z,41.78
2024-02-29T09:04:49.172Z,31.90
2024-02-29T09:07:16.363Z,35.22
2024-02-29T09:09:43.744Z,43.75
2024-02-29T09:12:11.694Z,40.60
2024-02-29T09:14:39.054Z,41.33
2024-02-29T09:17:07.279Z,34.90
2024-02-29T09:19:34.880Z,40.22
2024-02-29T09:22:02.360Z,40.67
2024-02-29T09:24:32.548Z,39.10
2024-02-29T09:26:59.688Z,35.72
2024-02-29T09:29:27.663Z,37.42
2024-02-29T09:31:55.459Z,38.17
2024-02-29T09:34:22.525Z,36.95
2024-02-29T09:36:50.424Z,42.13
2024-02-29T09:39:17.580Z,31.48
2024-02-29T09:42:00.034Z,38.85
2024-02-29T09:44:32.637Z,36.13
2024-02-29T09:46:59.846Z,34.13
2024-02-29T09:49:29.205Z,34.92
2024-02-29T09:51:56.357Z,28.70
2024-02-29T09:54:23.752Z,35.10
2024-02-29T09:56:50.872Z,39.40
2024-02-29T09:59:18.599Z,31.80
2024-02-29T10:01:46.455Z,40.95
2024-02-29T10:04:13.677Z,37.80
2024-02-29T10:06:40.945Z,34.58
2024-02-29T10:09:08.400Z,37.72
2024-02-29T10:11:40.518Z,37.90
2024-02-29T10:14:19.407Z,37.90
2024-02-29T10:16:50.473Z,35.75
2024-02-29T10:19:17.658Z,39.22
2024-02-29T10:21:44.813Z,42.15
2024-02-29T10:24:11.944Z,36.95
2024-02-29T10:26:39.172Z,35.45
2024-02-29T10:29:07.079Z,34.10
2024-02-29T10:31:34.518Z,34.35
2024-02-29T10:34:01.667Z,42.78
2024-02-29T10:36:28.818Z,35.67
2024-02-29T10:38:56.391Z,39.22
2024-02-29T10:41:23.591Z,36.20
2024-02-29T10:43:51.967Z,39.97
2024-02-29T10:46:22.955Z,31.60
2024-02-29T10:48:54.488Z,38.22
2024-02-29T10:51:27.198Z,37.63
2024-02-29T10:54:13.334Z,39.00
2024-02-29T10:56:43.147Z,34.42
2024-02-29T10:59:11.786Z,33.45
2024-02-29T11:01:40.093Z,35.63
2024-02-29T11:04:07.793Z,30.23
2024-02-29T11:06:43.877Z,28.58
2024-02-29T11:09:12.472Z,28.98
2024-02-29T11:11:39.753Z,23.80
2024-02-29T11:14:06.900Z,26.23
2024-02-29T11:16:34.517Z,28.55
2024-02-29T11:19:03.497Z,32.88
2024-02-29T11:21:30.865Z,30.50
2024-02-29T11:24:07.961Z,25.90
2024-02-29T11:26:35.973Z,26.17
2024-02-29T11:29:16.322Z,29.70
2024-02-29T11:31:48.092Z,28.48
2024-02-29T11:34:18.074Z,31.73
2024-02-29T11:36:49.565Z,26.77
2024-02-29T11:39:18.922Z,24.77
2024-02-29T11:44:13.333Z,22.02
2024-02-29T11:46:50.220Z,23.58
2024-02-29T11:49:17.801Z,21.73
2024-02-29T11:51:45.978Z,23.58
2024-02-29T11:54:16.831Z,21.70
2024-02-29T11:56:44.230Z,21.88
2024-02-29T11:59:12.276Z,22.90
2024-02-29T12:01:39.737Z,18.40
2024-02-29T12:04:08.079Z,26.08
2024-02-29T12:06:36.634Z,22.25
2024-02-29T12:09:04.110Z,27.92
2024-02-29T12:11:32.923Z,22.70
2024-02-29T12:14:00.394Z,21.95
2024-02-29T12:16:27.761Z,16.88
2024-02-29T12:18:54.970Z,22.00
2024-02-29T12:21:22.176Z,20.95
2024-02-29T12:23:51.323Z,23.63
2024-02-29T12:26:18.532Z,23.55
2024-02-29T12:28:49.082Z,22.77
2024-02-29T12:31:16.571Z,21.90
2024-02-29T12:33:44.706Z,26.55
2024-02-29T12:36:17.299Z,25.70
2024-02-29T12:38:45.557Z,24.20
2024-02-29T12:41:14.335Z,23.85
2024-02-29T12:43:47.627Z,23.58
2024-02-29T12:46:16.097Z,20.98
2024-02-29T12:48:43.539Z,22.00
2024-02-29T12:51:11.053Z,27.48
2024-02-29T12:53:38.508Z,27.13
2024-02-29T12:56:06.381Z,24.25
2024-02-29T12:58:34.027Z,22.58
2024-02-29T13:01:01.751Z,20.35
2024-02-29T13:03:29.161Z,21.20
2024-02-29T13:05:56.417Z,20.75
2024-02-29T13:08:23.542Z,17.45
2024-02-29T13:10:51.149Z,26.38
2024-02-29T13:13:18.888Z,25.42
2024-02-29T13:15:46.215Z,25.23
2024-02-29T13:18:13.437Z,25.92
2024-02-29T13:20:41.293Z,25.40
2024-02-29T13:23:09.072Z,21.75
2024-02-29T13:25:36.786Z,22.40
2024-02-29T13:28:05.201Z,19.40
2024-02-29T13:30:32.571Z,24.40
2024-02-29T13:32:59.711Z,22.70
2024-02-29T13:35:27.361Z,23.45
2024-02-29T13:37:54.514Z,22.27
2024-02-29T13:40:21.838Z,21.70
2024-02-29T13:42:49.698Z,31.70
2024-02-29T13:45:16.984Z,23.48
2024-02-29T13:47:48.460Z,29.17
2024-02-29T13:50:15.766Z,19.35
2024-02-29T13:52:44.081Z,24.27
2024-02-29T13:55:11.785Z,20.65
2024-02-29T13:57:39.133Z,22.30
2024-02-29T14:00:07.287Z,20.63
2024-02-29T14:02:34.755Z,18.52
2024-02-29T14:05:01.892Z,26.23
2024-02-29T14:07:29.266Z,18.40
2024-02-29T14:09:56.423Z,19.80
2024-02-29T14:12:25.887Z,20.40
2024-02-29T14:14:53.158Z,24.60
2024-02-29T14:17:20.820Z,24.05
2024-02-29T14:19:47.907Z,22.13
2024-02-29T14:22:15.228Z,24.25
2024-02-29T14:24:42.461Z,22.60
2024-02-29T14:27:09.967Z,22.48
2024-02-29T14:29:37.070Z,20.67
2024-02-29T14:32:04.503Z,23.30
2024-02-29T14:34:33.414Z,19.77
2024-02-29T14:37:01.050Z,20.55
2024-02-29T14:39:28.181Z,19.40
2024-02-29T14:41:55.237Z,22.83
2024-02-29T14:44:22.392Z,23.67
2024-02-29T14:46:49.698Z,23.80
2024-02-29T14:49:16.909Z,24.42
2024-02-29T14:51:44.154Z,25.33
2024-02-29T14:54:11.487Z,34.83
2024-02-29T14:56:38.636Z,28.20
2024-02-29T14:59:05.826Z,21.83
2024-02-29T15:01:33.095Z,25.75
2024-02-29T15:04:00.302Z,25.67
2024-02-29T15:06:27.427Z,24.17
2024-02-29T15:08:54.541Z,21.95
2024-02-29T15:11:23.671Z,25.10
2024-02-29T15:13:52.141Z,22.50
2024-02-29T15:16:20.988Z,19.05
2024-02-29T15:18:48.180Z,29.50
2024-02-29T15:21:15.288Z,25.02
2024-02-29T15:23:42.402Z,24.60
2024-02-29T15:26:12.658Z,31.38
2024-02-29T15:28:48.832Z,26.67
2024-02-29T15:31:19.229Z,28.98
2024-02-29T15:33:46.455Z,29.95
2024-02-29T15:36:13.651Z,31.77
2024-02-29T15:38:40.810Z,29.38
2024-02-29T15:41:08.031Z,26.63
2024-02-29T15:43:35.293Z,26.48
2024-02-29T15:46:02.581Z,26.15
2024-02-29T15:48:34.638Z,24.08
2024-02-29T15:51:01.962Z,33.70
2024-02-29T15:53:29.038Z,30.85
2024-02-29T15:55:56.179Z,32.50
2024-02-29T15:58:23.375Z,31.10
2024-02-29T16:00:50.590Z,34.58
2024-02-29T16:03:17.721Z,30.77
2024-02-29T16:05:44.772Z,33.70
2024-02-29T16:08:11.952Z,33.53
2024-02-29T16:10:39.063Z,26.92
2024-02-29T16:13:07.650Z,26.92
2024-02-29T16:15:34.952Z,32.58
2024-02-29T16:18:02.088Z,32.25
2024-02-29T16:20:29.361Z,32.75
2024-02-29T16:22:56.437Z,32.95
2024-02-29T16:25:23.864Z,27.00
2024-02-29T16:27:52.394Z,32.67
2024-02-29T16:30:19.804Z,34.95
2024-02-29T16:32:47.595Z,34.25
2024-02-29T16:35:15.118Z,35.63
2024-02-29T16:37:42.209Z,34.03
2024-02-29T16:40:09.941Z,33.67
2024-02-29T16:42:37.123Z,39.88
2024-02-29T16:45:04.430Z,31.80
2024-02-29T16:47:31.550Z,34.50
2024-02-29T16:49:59.388Z,34.40
2024-02-29T16:52:26.489Z,31.90
2024-02-29T16:54:54.409Z,36.83
2024-02-29T16:57:21.557Z,37.83
2024-02-29T16:59:48.610Z,33.40
2024-02-29T17:02:18.058Z,31.95
2024-02-29T17:04:47.743Z,31.20
2024-02-29T17:07:15.318Z,28.08
2024-02-29T17:09:42.541Z,31.45
2024-02-29T17:12:11.456Z,33.03
2024-02-29T17:14:39.651Z,30.27
2024-02-29T17:17:09.106Z,31.80
2024-02-29T17:19:36.155Z,31.60
2024-02-29T17:22:03.448Z,31.58
2024-02-29T17:24:30.583Z,30.77
2024-02-29T17:26:57.634Z,27.27
2024-02-29T17:29:24.677Z,32.65
2024-02-29T17:31:51.918Z,32.30
2024-02-29T17:34:19.025Z,35.70
2024-02-29T17:36:46.144Z,31.48
2024-02-29T17:39:13.334Z,33.47
2024-02-29T17:41:40.398Z,29.40
2024-02-29T17:44:07.595Z,33.50
2024-02-29T17:46:34.774Z,31.17
2024-02-29T17:49:01.911Z,30.60
2024-02-29T17:51:29.074Z,31.45
2024-02-29T17:53:57.159Z,35.40
2024-02-29T17:56:24.270Z,36.78
2024-02-29T17:58:51.436Z,39.65
2024-02-29T18:01:18.794Z,36.03
2024-02-29T18:03:46.977Z,33.85
2024-02-29T18:06:14.789Z,38.92
2024-02-29T18:08:42.033Z,42.38
2024-02-29T18:11:09.200Z,35.78
2024-02-29T18:13:37.676Z,37.35
2024-02-29T18:16:08.269Z,33.20
2024-02-29T18:18:35.363Z,35.03
2024-02-29T18:21:02.889Z,36.45
2024-02-29T18:23:29.959Z,51.72
2024-02-29T18:25:57.233Z,44.95
2024-02-29T18:28:24.467Z,49.53
2024-02-29T18:30:51.639Z,48.22
2024-02-29T18:33:18.893Z,55.95
2024-02-29T18:35:47.157Z,41.83
2024-02-29T18:38:14.273Z,43.80
2024-02-29T18:40:41.450Z,46.25
2024-02-29T18:43:08.557Z,59.40
2024-02-29T18:45:35.730Z,48.60
2024-02-29T18:48:02.985Z,42.00
2024-02-29T18:50:30.052Z,38.15
2024-02-29T18:52:58.028Z,39.90
2024-02-29T18:55:25.199Z,33.25
2024-02-29T18:57:52.623Z,31.10
2024-02-29T19:00:20.045Z,30.13
2024-02-29T19:02:47.185Z,34.08
2024-02-29T19:05:14.307Z,30.50
2024-02-29T19:07:41.510Z,28.27
2024-02-29T19:10:10.984Z,32.65
2024-02-29T19:12:39.084Z,32.10
2024-02-29T19:15:08.272Z,31.38
2024-02-29T19:17:35.493Z,33.97
2024-02-29T19:20:07.049Z,37.13
2024-02-29T19:22:36.155Z,30.80
2024-02-29T19:27:30.660Z,27.67
2024-02-29T19:29:57.721Z,33.83
2024-02-29T19:32:24.884Z,35.53
2024-02-29T19:34:51.962Z,36.40
2024-02-29T19:37:19.206Z,32.03
2024-02-29T19:39:48.098Z,28.52
2024-02-29T19:42:15.404Z,30.85
2024-02-29T19:44:42.549Z,30.35
2024-02-29T19:47:09.723Z,31.77
2024-02-29T19:49:39.859Z,38.58
2024-02-29T19:52:07.344Z,30.38
2024-02-29T19:54:35.184Z,35.50
2024-02-29T19:57:02.278Z,35.53
2024-02-29T19:59:29.859Z,35.75
2024-02-29T20:01:56.973Z,31.25
2024-02-29T20:04:27.098Z,36.88
2024-02-29T20:06:56.125Z,37.72
2024-02-29T20:09:23.539Z,34.60
2024-02-29T20:11:50.686Z,33.42
2024-02-29T20:14:17.863Z,33.90
2024-02-29T20:16:44.950Z,34.75
2024-02-29T20:19:13.041Z,27.58
2024-02-29T20:21:41.025Z,29.08
2024-02-29T20:24:08.724Z,31.52
2024-02-29T20:26:39.560Z,32.42
2024-02-29T20:29:06.908Z,35.83
2024-02-29T20:31:34.848Z,26.83
2024-02-29T20:34:02.042Z,30.92
2024-02-29T20:36:30.039Z,37.03
2024-02-29T20:38:57.821Z,33.65
2024-02-29T20:41:24.920Z,31.98
2024-02-29T20:43:52.004Z,33.40
2024-02-29T20:46:19.112Z,29.23
2024-02-29T20:48:46.439Z,32.42
2024-02-29T20:51:13.857Z,31.58
2024-02-29T20:53:40.940Z,34.25
2024-02-29T20:56:08.130Z,31.73
2024-02-29T20:58:36.934Z,34.53
2024-02-29T21:01:04.904Z,27.63
2024-02-29T21:03:32.037Z,26.92
2024-02-29T21:05:59.288Z,26.88
2024-02-29T21:08:36.220Z,33.13
2024-02-29T21:11:03.388Z,42.85
2024-02-29T21:13:33.056Z,26.88
2024-02-29T21:16:00.463Z,36.03
2024-02-29T21:18:27.730Z,32.55
2024-02-29T21:20:55.181Z,30.02
2024-02-29T21:23:22.256Z,28.30
2024-02-29T21:25:49.394Z,29.67
2024-02-29T21:28:16.546Z,32.60
2024-02-29T21:30:43.722Z,37.35
2024-02-29T21:33:10.831Z,33.95
2024-02-29T21:35:38.162Z,27.25
2024-02-29T21:38:05.396Z,30.40
2024-02-29T21:40:32.645Z,30.08
2024-02-29T21:43:00.125Z,31.30
2024-02-29T21:45:27.293Z,44.83
2024-02-29T21:47:54.466Z,39.55
2024-02-29T21:50:22.723Z,36.08
2024-02-29T21:52:50.011Z,35.25
2024-02-29T21:55:17.427Z,29.42
2024-02-29T21:57:44.722Z,31.38
2024-02-29T22:00:13.650Z,30.63
2024-02-29T22:02:43.929Z,27.23
2024-02-29T22:05:11.704Z,29.23
2024-02-29T22:07:38.900Z,35.58
2024-02-29T22:10:06.272Z,35.42
2024-02-29T22:12:33.519Z,28.38
2024-02-29T22:15:00.673Z,30.85
2024-02-29T22:17:27.778Z,32.90
2024-02-29T22:19:54.865Z,34.08
2024-02-29T22:22:21.977Z,33.47
2024-02-29T22:24:49.178Z,31.67
2024-02-29T22:27:16.713Z,34.22
2024-02-29T22:29:43.765Z,34.75
2024-02-29T22:32:10.805Z,34.35
2024-02-29T22:34:37.940Z,37.65
2024-02-29T22:37:05.247Z,33.35
2024-02-29T22:39:32.604Z,33.40
2024-02-29T22:42:02.317Z,36.15
2024-02-29T22:44:30.292Z,27.83
2024-02-29T22:46:57.434Z,36.20
2024-02-29T22:49:24.951Z,32.50
2024-02-29T22:51:52.293Z,35.25
2024-02-29T22:54:19.711Z,42.13
2024-02-29T22:56:46.842Z,35.40
2024-02-29T22:59:14.018Z,36.38
2024-02-29T23:01:45.897Z,29.55
2024-02-29T23:04:13.658Z,34.05
2024-02-29T23:06:41.964Z,28.50
2024-02-29T23:09:09.221Z,30.80
2024-02-29T23:11:36.514Z,36.38
2024-02-29T23:14:03.640Z,30.42
2024-02-29T23:16:30.730Z,31.55
2024-02-29T23:18:57.920Z,33.10
2024-02-29T23:21:26.365Z,35.67
2024-02-29T23:23:53.474Z,38.03
2024-02-29T23:26:22.237Z,32.75
2024-02-29T23:28:49.440Z,29.80
2024-02-29T23:31:17.618Z,25.90
2024-02-29T23:33:44.812Z,31.90
2024-02-29T23:36:11.920Z,34.15
2024-02-29T23:38:38.995Z,32.92
2024-02-29T23:41:06.168Z,30.67
2024-02-29T23:43:33.417Z,30.27
2024-02-29T23:46:00.873Z,29.05
2024-02-29T23:48:27.967Z,23.88
2024-02-29T23:50:55.065Z,25.90
2024-02-29T23:53:22.131Z,24.75
2024-02-29T23:55:49.199Z,31.23
2024-02-29T23:58:16.324Z,30.70
